Latest Coastal Weather Observations for Charles Point

IDD60701

Issued at 12:51 am CST Sunday 26 March 2017 (issued every 10 minutes, with the page automatically refreshed every 10 minutes)

About coastal observations | Map of coastal stations | Coastal observations for NT | Marine services | Other Formats
Station Details ID: 014031 Name: CHARLES POINT Lat: -12.39 Lon: 130.63 Height: 14.0 m
Data from the previous 72 hours. | See also: Recent months for locations in Northern Territory
Date/Time
CST
Temp
°C
Wind Pressure Rain since
9am
mm
Weather Cloud Vis
km
Sea
Height
m
Swell
Dir  Spd
kts
Gust
kts
hPa Trend Height
m
Period
s
Dir
26/12:30am 25.9 NE 2 4 1008.7 - 0.4 - - - - - - -
26/12:00am 25.8 N 1 1 1009.0 - 0.4 - - - - - - -
 
Date/Time
CST
Temp
°C
Wind Pressure Rain since
9am
mm
Weather Cloud Vis
km
Sea
Height
m
Swell
Dir  Spd
kts
Gust
kts
hPa Trend Height
m
Period
s
Dir
25/11:30pm 26.2 N 2 2 1009.3 - 0.4 - - - - - - -
25/11:00pm 26.8 CALM 0 0 1009.1 - 0.4 - - - - - - -
25/10:30pm 27.5 N 3 4 1008.9 - 0.4 - - - - - - -
25/10:00pm 27.3 NNE 3 5 1008.4 - 0.4 - - - - - - -
25/09:30pm 27.3 N 3 4 1008.1 - 0.4 - - - - - - -
25/09:00pm 27.6 N 4 5 1007.8 - 0.4 - - - - - - -
25/08:30pm 27.6 NW 5 7 1007.6 - 0.4 - - - - - - -
25/08:00pm 27.7 NNW 6 9 1006.9 - 0.4 - - - - - - -
25/07:30pm 27.6 NW 4 6 1006.5 - 0.4 - - - - - - -
25/07:00pm 27.5 NW 4 7 1006.2 - 0.4 - - - - - - -
25/06:30pm 27.9 NNW 4 6 1005.8 - 0.4 - - - - - - -
25/06:00pm 28.0 NNW 4 8 1005.8 - 0.4 - - - - - - -
25/05:30pm 28.2 NNW 2 3 1005.5 - 0.4 - - - - - - -
25/05:00pm 28.1 N 5 7 1005.2 - 0.4 - - - - - - -
25/04:30pm 28.4 N 5 7 1005.3 - 0.4 - - - - - - -
25/04:00pm 28.2 NW 3 5 1005.6 - 0.4 - - - - - - -
25/03:30pm 28.1 WNW 3 5 1006.0 - 0.4 - - - - - - -
25/03:00pm 28.0 WNW 3 5 1005.9 - 0.4 - - - - - - -
25/02:30pm 27.8 WNW 2 3 1006.2 - 0.4 - - - - - - -
25/02:00pm 27.8 WNW 4 7 1006.3 - 0.4 - - - - - - -
25/01:30pm 27.1 W 4 8 1006.5 - 0.4 - - - - - - -
25/01:00pm 27.6 NW 11 20 1007.7 - 0.4 - - - - - - -
25/12:30pm 28.7 NNW 5 7 1007.9 - 0.4 - - - - - - -
25/12:00pm 28.6 N 5 7 1008.5 - 0.4 - - - - - - -
25/11:30am 29.6 N 5 7 1008.6 - 0.4 - - - - - - -
25/11:00am 29.1 NNE 6 9 1008.9 - 0.4 - - - - - - -
25/10:30am 29.3 ENE 4 7 1008.9 - 0.2 - - - - - - -
25/10:00am 27.9 E 4 8 1008.7 - 0.2 - - - - - - -
25/09:30am 27.7 E 4 7 1008.5 - 0.0 - - - - - - -
25/09:00am 27.6 E 4 7 1007.9 - 22.0 - - - - - - -
25/08:30am 27.1 E 5 8 1007.4 - 22.0 - - - - - - -
25/08:00am 26.2 SE 5 8 1006.8 - 22.0 - - - - - - -
25/07:30am 25.6 SE 4 5 1006.6 - 22.0 - - - - - - -
25/07:00am 25.6 SE 4 7 1006.5 - 22.0 - - - - - - -
25/06:30am 25.6 ESE 5 8 1006.2 - 22.0 - - - - - - -
25/06:00am 25.3 ESE 4 7 1006.2 - 22.0 - - - - - - -
25/05:30am 25.1 ESE 5 8 1005.9 - 22.0 - - - - - - -
25/05:00am 25.2 ESE 7 12 1005.8 - 22.0 - - - - - - -
25/04:30am 25.4 SE 5 8 1006.1 - 21.8 - - - - - - -
25/04:00am 25.0 SE 4 6 1005.6 - 21.8 - - - - - - -
25/03:30am 24.8 SSE 4 7 1006.3 - 21.8 - - - - - - -
25/03:00am 24.7 SSE 3 5 1006.4 - 21.8 Recent precip. - - - - - -
25/02:30am 24.8 SSE 4 6 1006.9 - 21.6 - - - - - - -
25/02:00am 24.9 SSE 3 5 1007.2 - 21.6 - - - - - - -
25/01:30am 24.9 SSE 4 6 1007.6 - 21.6 - - - - - - -
25/01:00am 25.1 SSE 5 7 1007.7 - 21.6 - - - - - - -
25/12:30am 25.1 S 4 5 1007.9 - 21.6 - - - - - - -
25/12:00am 25.2 S 5 8 1007.9 - 21.6 Recent precip. - - - - - -
 
Date/Time
CST
Temp
°C
Wind Pressure Rain since
9am
mm
Weather Cloud Vis
km
Sea
Height
m
Swell
Dir  Spd
kts
Gust
kts
hPa Trend Height
m
Period
s
Dir
24/11:30pm 25.5 S 4 5 1008.6 - 21.4 - - - - - - -
24/11:00pm 25.6 S 5 7 1008.7 - 21.0 - - - - - - -
24/10:30pm 25.9 S 6 9 1008.3 - 20.8 - - - - - - -
24/10:00pm 26.4 S 4 6 1007.9 - 20.6 - - - - - - -
24/09:30pm 26.3 SSE 3 4 1008.0 - 20.4 - - - - - - -
24/09:00pm 26.8 E 2 3 1007.5 - 18.6 Rain - - - - - -
24/08:30pm 27.6 NW 3 6 1007.2 - 15.4 - - - - - - -
24/08:00pm 27.9 NNW 7 12 1006.6 - 14.0 - - - - - - -
24/07:30pm 27.8 N 7 10 1006.2 - 14.0 - - - - - - -
24/07:00pm 27.1 N 10 15 1005.7 - 14.0 - - - - - - -
24/06:30pm 27.3 NE 5 7 1005.6 - 14.0 - - - - - - -
24/06:00pm 27.4 NE 1 2 1005.8 - 14.0 - - - - - - -
24/05:30pm 27.1 CALM 0 0 1005.8 - 14.0 - - - - - - -
24/05:00pm 27.1 E 1 2 1005.0 - 14.0 - - - - - - -
24/04:30pm 26.6 NE 4 10 1004.8 - 13.8 - - - - - - -
24/04:00pm 29.6 WSW 3 4 1005.6 - 0.0 - - - - - - -
24/03:30pm 31.5 WNW 5 7 1005.3 - 0.0 - - - - - - -
24/03:00pm 31.7 WNW 3 6 1005.8 - 0.0 - - - - - - -
24/02:30pm 31.0 NW 6 8 1006.0 - 0.0 - - - - - - -
24/02:00pm 31.2 NNW 3 4 1006.0 - 0.0 - - - - - - -
24/01:30pm 31.0 NNW 4 6 1006.7 - 0.0 - - - - - - -
24/01:00pm 30.5 NW 4 7 1007.4 - 0.0 - - - - - - -
24/12:30pm 31.0 NW 5 8 1008.0 - 0.0 - - - - - - -
24/12:00pm 30.9 NNE 3 5 1008.6 - 0.0 - - - - - - -
24/11:30am 30.8 NE 5 8 1009.1 - 0.0 - - - - - - -
24/11:00am 30.8 ENE 4 6 1009.5 - 0.0 - - - - - - -
24/10:30am 30.0 E 3 5 1009.6 - 0.0 - - - - - - -
24/10:00am 30.3 SSE 3 4 1009.6 - 0.0 - - - - - - -
24/09:30am 30.1 ESE 3 5 1009.5 - 0.0 - - - - - - -
24/09:00am 29.3 SSE 2 5 1009.4 - 31.6 - - - - - - -
24/08:30am 27.5 S 1 3 1009.1 - 31.6 - - - - - - -
24/08:00am 26.1 SSE 3 5 1008.8 - 31.6 - - - - - - -
24/07:30am 25.6 SSE 4 7 1008.5 - 31.6 - - - - - - -
24/07:00am 25.3 SE 4 6 1007.9 - 31.6 - - - - - - -
24/06:30am 25.2 SE 4 6 1007.8 - 31.6 - - - - - - -
24/06:00am 25.1 SE 5 7 1007.6 - 31.6 - - - - - - -
24/05:30am 25.1 SE 4 6 1007.6 - 31.6 - - - - - - -
24/05:00am 24.9 SSE 4 6 1007.4 - 31.6 - - - - - - -
24/04:30am 24.9 SSE 4 6 1007.2 - 31.6 - - - - - - -
24/04:00am 24.6 SSE 4 5 1007.4 - 31.6 - - - - - - -
24/03:30am 24.8 S 3 4 1007.9 - 31.6 - - - - - - -
24/03:00am 24.8 S 2 3 1008.1 - 31.6 - - - - - - -
24/02:30am 25.1 SSE 3 3 1007.8 - 31.6 - - - - - - -
24/02:00am 24.9 SSE 1 3 1008.6 - 31.6 - - - - - - -
24/01:30am 24.9 SSE 1 3 1008.4 - 31.6 - - - - - - -
24/01:00am 24.7 SE 3 4 1008.0 - 31.6 - - - - - - -
24/12:30am 24.8 SE 1 2 1008.5 - 31.6 - - - - - - -
24/12:00am 24.9 SSE 3 6 1008.8 - 31.6 - - - - - - -
 
Date/Time
CST
Temp
°C
Wind Pressure Rain since
9am
mm
Weather Cloud Vis
km
Sea
Height
m
Swell
Dir  Spd
kts
Gust
kts
hPa Trend Height
m
Period
s
Dir
23/11:30pm 25.1 S 3 6 1009.5 - 31.6 - - - - - - -
23/11:00pm 25.4 S 4 7 1009.8 - 31.6 - - - - - - -
23/10:30pm 25.7 SSE 3 6 1010.3 - 31.6 - - - - - - -
23/10:00pm 25.6 SSE 5 7 1009.9 - 31.6 - - - - - - -
23/09:30pm 25.6 SSE 4 5 1009.5 - 31.6 - - - - - - -
23/09:00pm 25.6 S 3 5 1008.8 - 31.6 - - - - - - -
23/08:30pm 25.6 S 4 7 1008.7 - 31.6 - - - - - - -
23/08:00pm 25.9 S 2 6 1008.7 - 31.6 - - - - - - -
23/07:30pm 26.3 SW 2 3 1007.9 - 31.6 - - - - - - -
23/07:00pm 26.5 SW 3 5 1007.1 - 31.6 - - - - - - -
23/06:30pm 27.0 SSW 5 9 1006.7 - 31.6 - - - - - - -
23/06:00pm 27.6 SSW 5 9 1006.5 - 31.6 - - - - - - -
23/05:30pm 28.0 WSW 4 7 1006.7 - 31.6 - - - - - - -
23/05:00pm 28.2 WSW 5 10 1006.4 - 31.6 - - - - - - -
23/04:30pm 28.9 WSW 3 6 1006.5 - 31.6 - - - - - - -
23/04:00pm 29.6 WSW 5 11 1006.6 - 31.6 - - - - - - -
23/03:30pm 30.3 W 7 12 1006.8 - 31.6 - - - - - - -
23/03:00pm 30.2 WNW 8 12 1007.1 - 31.6 - - - - - - -
23/02:30pm 30.1 WNW 8 11 1007.4 - 31.6 - - - - - - -
23/02:00pm 29.7 WNW 7 9 1007.5 - 31.6 - - - - - - -
23/01:30pm 29.8 NNW 6 7 1008.1 - 31.6 - - - - - - -
23/01:00pm 29.1 WNW 3 5 1008.6 - 31.6 - - - - - - -
23/12:30pm 29.0 WNW 7 9 1009.3 - 31.6 - - - - - - -
23/12:00pm 27.8 WNW 7 9 1010.1 - 31.6 Recent precip. - - - - - -
23/11:30am 26.4 WNW 6 8 1010.5 - 31.4 - - - - - - -
23/11:00am 25.7 WSW 3 5 1010.3 - 31.4 - - - - - - -
23/10:30am 24.8 WSW 2 4 1010.8 - 31.4 - - - - - - -
23/10:00am 24.3 SSW 3 5 1011.2 - 31.4 - - - - - - -
23/09:30am 24.4 NE 11 21 1011.3 - 22.4 - - - - - - -
23/09:12am 25.6 ESE 5 21 1010.8 - 0.4 - - - - - - -
23/09:00am 26.4 CALM 0 0 1010.7 - 4.2 - - - - - - -
23/08:30am 26.5 SSE 2 4 1009.6 - 4.2 - - - - - - -
23/08:00am 26.4 SSE 2 4 1009.3 - 4.2 - - - - - - -
23/07:30am 25.9 SE 2 4 1009.1 - 2.6 - - - - - - -
23/07:00am 25.6 SSE 2 4 1008.8 - 2.6 - - - - - - -
23/06:30am 25.7 SSE 2 3 1008.5 - 2.6 - - - - - - -
23/06:00am 25.7 SSE 2 4 1008.1 - 2.4 Recent precip. - - - - - -
23/05:30am 25.9 SSE 2 3 1007.9 - 2.0 - - - - - - -
23/05:00am 25.8 SE 2 3 1008.0 - 1.2 - - - - - - -
23/04:30am 25.5 SE 2 3 1007.6 - 1.0 - - - - - - -
23/04:00am 25.7 S 1 3 1007.6 - 1.0 - - - - - - -
23/03:30am 25.6 S 3 4 1007.9 - 1.0 - - - - - - -
23/03:00am 25.5 SSE 2 3 1008.0 - 1.0 - - - - - - -
23/02:30am 25.5 SE 2 3 1008.3 - 1.0 - - - - - - -
23/02:00am 25.5 CALM 0 2 1008.5 - 1.0 - - - - - - -
23/01:30am 25.6 SSE 2 2 1008.9 - 1.0 - - - - - - -
23/01:00am 25.8 S 2 3 1009.0 - 1.0 - - - - - - -

Other Formats:

Comma delimited format used in spreadsheet applications
http://www.bom.gov.au/fwo/IDD60701/IDD60701.99510.axf

JavaScript Object Notation format (JSON) in row-major order
http://www.bom.gov.au/fwo/IDD60701/IDD60701.99510.json